KLRF

Little Rock Air Force Base

Airport
ICAO code
KLRF
Summary
ICAO Region
NAM
ICAO Territory
Location

Little Rock, Arkansas,

Coordinates
34° 54' 50" N , 92° 8' 38" W
KCC
Metar
Observation
KLRF 061455Z 08003KT 9SM OVC037 08/08 A3013 RMK AO2A SLP207 T00790078 52005
Station
Little Rock Air Force Base
Date/Time
2023-02-06 14:55:00
Wind direction
80°
Wind speed
03 kts
Lowest cloud amount
overcast
Temperature
7.9°C
Dew point
7.8°C
Humidity
99%
Weather condition
n/a

Description

Little Rock Air Force Base is a United States Air Force base located approximately 27 km northeast of the central business district of Little Rock, Arkansas.

Climatology

Humid “subtropical” climate (Köppen climate classification Cfa) - characterized by hot, humid summers and cool winters. Significant amounts of precipitation occur in all seasons in most areas. Winter rainfall (and sometimes snowfall) is associated with large storms that the westerlies steer from west to east. Most summer rainfall occurs during thunderstorms and occasional tropical storms (hurricanes).

Runways

Designator Length Width Surface Rops
69/249 1061 18 ASPH No/No
7/25 3658 61 CON No/No

Airport map

Aerial View

SKYbrary Partners:

Safety knowledge contributed by: